Time;durP1;ratioP1;P1;durP2;ratioP2;P2;SDS_P1;SDS_P2;PMS_P1;PMS_P2;Temp;Humidity;BMP_temperature;BMP_pressure;BME280_temperature;BME280_humidity;BME280_pressure;Samples;Min_cycle;Max_cycle;Signal;HPM_P1;HPM_P2
2021/05/11 00:02:07;;;;;;;2.60;0.57;;;;;;;18.31;51.69;97032.22;8279709;28;20201;-63
2021/05/11 00:06:09;;;;;;;1.33;0.50;;;;;;;18.27;51.88;97020.38;8280398;28;20255;-63
2021/05/11 00:10:12;;;;;;;0.40;0.30;;;;;;;18.29;52.03;97005.31;8280312;28;20209;-63
2021/05/11 00:14:15;;;;;;;0.53;0.40;;;;;;;18.37;51.82;96994.16;8280195;28;20385;-64
2021/05/11 00:18:17;;;;;;;1.63;0.60;;;;;;;18.39;51.66;97007.97;8280245;28;20202;-64
2021/05/11 00:22:19;;;;;;;1.37;0.50;;;;;;;18.42;51.53;97014.72;8279871;28;20198;-64
2021/05/11 00:26:21;;;;;;;0.93;0.50;;;;;;;18.30;51.97;97020.09;8280364;28;20483;-65
2021/05/11 00:30:23;;;;;;;4.23;0.60;;;;;;;18.40;51.41;97029.75;8280652;28;20291;-63
2021/05/11 00:34:25;;;;;;;1.03;0.50;;;;;;;18.42;51.46;97027.81;8279975;28;20237;-63
2021/05/11 00:38:27;;;;;;;0.70;0.40;;;;;;;18.22;51.96;97014.75;8280291;28;20202;-63
2021/05/11 00:42:29;;;;;;;1.17;0.50;;;;;;;18.36;51.75;97026.59;8280190;28;20493;-63
2021/05/11 00:46:34;;;;;;;1.70;0.50;;;;;;;18.36;51.61;97016.91;8280240;28;20305;-63
2021/05/11 00:50:36;;;;;;;0.97;0.57;;;;;;;18.31;51.75;97024.34;8280697;28;20407;-64
2021/05/11 00:54:38;;;;;;;1.00;0.60;;;;;;;18.14;52.07;97014.59;8280052;28;20240;-63
2021/05/11 00:58:40;;;;;;;0.73;0.50;;;;;;;18.26;51.79;97013.50;8279891;28;20392;-63
2021/05/11 01:02:43;;;;;;;0.87;0.50;;;;;;;18.21;52.15;97010.44;8279938;28;20220;-63
2021/05/11 01:06:45;;;;;;;0.93;0.70;;;;;;;18.17;52.09;96994.19;8281219;28;20427;-63
2021/05/11 01:10:48;;;;;;;1.00;0.60;;;;;;;18.13;52.30;96981.50;8285767;28;20201;-63
2021/05/11 01:14:50;;;;;;;1.53;0.50;;;;;;;18.20;52.30;96984.38;8285622;28;20241;-63
2021/05/11 01:18:55;;;;;;;0.90;0.60;;;;;;;18.19;52.36;96970.47;8285257;28;20201;-63
2021/05/11 01:23:14;;;;;;;0.63;0.60;;;;;;;18.28;52.20;96961.75;8284635;28;20202;-64
2021/05/11 01:27:26;;;;;;;2.17;0.80;;;;;;;18.28;51.97;96966.19;8284999;28;20206;-63
2021/05/11 01:32:04;;;;;;;1.00;0.50;;;;;;;18.07;52.74;96959.31;8285019;28;20206;-63
2021/05/11 01:45:31;;;;;;;1.43;0.90;;;;;;;17.86;53.95;96959.47;8284556;28;20202;-63
2021/05/11 01:50:01;;;;;;;0.70;0.70;;;;;;;17.92;53.52;96947.59;8284585;28;20205;-64
2021/05/11 01:54:27;;;;;;;1.20;0.90;;;;;;;17.84;53.97;96940.44;8283697;28;20279;-64
2021/05/11 02:24:35;;;;;;;3.37;0.90;;;;;;;17.93;54.03;96923.06;8283626;28;20277;-63
2021/05/11 02:28:37;;;;;;;0.80;0.80;;;;;;;17.98;53.69;96920.84;8282969;28;20439;-63
2021/05/11 02:32:40;;;;;;;1.03;0.90;;;;;;;17.96;53.84;96936.69;8282915;28;20201;-63
2021/05/11 02:36:42;;;;;;;3.13;0.80;;;;;;;17.88;53.87;96933.13;8283041;28;20423;-63
2021/05/11 02:40:45;;;;;;;0.70;0.70;;;;;;;17.88;53.86;96938.38;8282696;28;20201;-63
2021/05/11 02:44:47;;;;;;;1.53;0.80;;;;;;;17.86;53.29;96964.69;8282704;28;20264;-63
2021/05/11 02:48:50;;;;;;;1.10;0.90;;;;;;;17.87;53.50;96963.72;8282354;28;20324;-63
2021/05/11 02:52:52;;;;;;;1.10;0.83;;;;;;;17.82;53.76;96941.50;8282232;28;20206;-63
2021/05/11 02:56:54;;;;;;;1.10;1.00;;;;;;;17.76;54.39;96916.69;8281919;28;20225;-63
2021/05/11 03:00:56;;;;;;;1.40;0.90;;;;;;;17.62;54.88;96904.03;8282446;28;20201;-63
2021/05/11 03:04:59;;;;;;;2.53;1.10;;;;;;;17.65;54.86;96916.81;8281518;28;20221;-64
2021/05/11 03:09:01;;;;;;;1.63;1.30;;;;;;;17.52;55.56;96902.22;8282330;28;20505;-63
2021/05/11 03:13:03;;;;;;;2.30;0.97;;;;;;;17.61;54.94;96892.75;8282581;28;20212;-63
2021/05/11 03:17:05;;;;;;;2.77;1.30;;;;;;;17.65;54.94;96909.81;8281518;28;20241;-63
2021/05/11 03:21:08;;;;;;;1.90;1.17;;;;;;;17.61;55.27;96900.59;8282006;28;20304;-64
2021/05/11 03:25:11;;;;;;;1.33;1.23;;;;;;;17.64;55.14;96923.03;8285569;28;20392;-64
2021/05/11 03:29:13;;;;;;;2.87;1.30;;;;;;;17.58;55.14;96913.94;8313427;28;20197;-63
2021/05/11 03:33:14;;;;;;;1.53;1.00;;;;;;;17.53;55.33;96916.97;8283046;28;20202;-63
2021/05/11 03:37:17;;;;;;;1.30;1.20;;;;;;;17.56;55.20;96923.72;8281325;28;20229;-63
2021/05/11 03:41:22;;;;;;;1.47;1.30;;;;;;;17.58;55.11;96937.50;8307820;28;20201;-63
2021/05/11 03:45:30;;;;;;;1.40;1.30;;;;;;;17.54;55.25;96950.03;8300577;28;20477;-63
2021/05/11 03:49:32;;;;;;;2.67;1.50;;;;;;;17.55;55.31;96935.16;8281129;28;20201;-64
2021/05/11 03:53:35;;;;;;;1.70;1.33;;;;;;;17.55;55.76;96940.38;8280529;28;20265;-64
2021/05/11 03:57:38;;;;;;;2.13;1.50;;;;;;;17.47;55.80;96938.44;8287410;28;20221;-63
2021/05/11 04:01:40;;;;;;;2.33;1.80;;;;;;;17.50;55.70;96947.84;8277428;28;20205;-64
2021/05/11 04:05:43;;;;;;;2.40;1.60;;;;;;;17.41;56.01;96930.31;8279997;28;20236;-64
2021/05/11 04:09:47;;;;;;;2.87;1.60;;;;;;;17.51;55.63;96937.22;8280447;28;20201;-64
2021/05/11 04:14:00;;;;;;;1.80;1.60;;;;;;;17.41;56.33;96912.81;8280384;28;20201;-63
2021/05/11 04:18:03;;;;;;;3.60;1.77;;;;;;;17.46;56.16;96915.88;8280622;28;20252;-63
2021/05/11 04:22:05;;;;;;;3.10;1.60;;;;;;;17.45;55.94;96919.44;8279957;28;20197;-63
2021/05/11 04:26:09;;;;;;;3.43;1.93;;;;;;;17.50;55.90;96930.34;8280370;28;20206;-63
2021/05/11 04:30:13;;;;;;;2.83;1.90;;;;;;;17.38;56.68;96940.09;8280048;28;20215;-63
2021/05/11 04:34:15;;;;;;;2.03;1.80;;;;;;;17.35;56.72;96939.56;8280151;28;20527;-64
2021/05/11 04:38:18;;;;;;;2.47;2.10;;;;;;;17.44;56.35;96924.81;8280418;28;20213;-64
2021/05/11 04:42:21;;;;;;;3.30;2.30;;;;;;;17.37;56.83;96921.91;8282337;28;20224;-63
2021/05/11 04:46:27;;;;;;;3.10;2.30;;;;;;;17.30;57.41;96926.84;8286979;28;20209;-63
2021/05/11 04:50:29;;;;;;;5.97;3.13;;;;;;;17.37;56.96;96946.28;8288036;28;20204;-63
2021/05/11 04:54:32;;;;;;;4.03;2.30;;;;;;;17.39;56.78;96944.38;8287190;28;20248;-63
2021/05/11 04:58:35;;;;;;;3.90;2.83;;;;;;;17.39;57.00;96940.94;8287704;28;20516;-63
2021/05/11 05:02:40;;;;;;;3.47;2.80;;;;;;;17.18;57.44;96920.09;8286162;28;20220;-64
2021/05/11 05:06:43;;;;;;;3.23;2.93;;;;;;;17.36;57.09;96939.41;8286534;28;20593;-63
2021/05/11 05:10:46;;;;;;;3.00;2.70;;;;;;;17.39;56.97;96948.78;8286293;28;20202;-63
2021/05/11 05:14:49;;;;;;;3.20;2.90;;;;;;;17.47;56.98;96962.00;8285772;28;20249;-63
2021/05/11 05:18:51;;;;;;;3.10;2.80;;;;;;;17.45;57.24;96958.69;8285901;28;20268;-63
2021/05/11 05:22:54;;;;;;;3.27;2.97;;;;;;;17.61;56.93;96949.47;8285813;28;20248;-63
2021/05/11 05:27:01;;;;;;;3.77;3.00;;;;;;;17.75;56.13;96942.06;8285491;28;20201;-63
2021/05/11 05:31:04;;;;;;;6.33;3.80;;;;;;;17.55;57.43;96932.53;8286183;28;20220;-63
2021/05/11 05:35:07;;;;;;;6.60;3.70;;;;;;;17.72;57.08;96916.13;8302652;28;20231;-63
2021/05/11 05:39:09;;;;;;;4.43;3.90;;;;;;;17.88;56.40;96906.94;8287437;28;20212;-63
2021/05/11 05:43:12;;;;;;;5.13;3.63;;;;;;;17.83;57.17;96922.22;8287035;28;20305;-63
2021/05/11 05:47:17;;;;;;;4.50;4.10;;;;;;;17.86;56.71;96922.78;8290530;28;20296;-63
2021/05/11 05:51:20;;;;;;;5.47;3.40;;;;;;;17.57;57.90;96927.97;8317215;28;20271;-63
2021/05/11 05:55:23;;;;;;;5.33;3.10;;;;;;;18.13;56.32;96939.59;8295516;28;20225;-66
2021/05/11 05:59:25;;;;;;;4.03;3.33;;;;;;;18.06;56.39;96931.44;8284186;28;20198;-63
2021/05/11 06:03:35;;;;;;;4.83;2.80;;;;;;;18.10;56.15;96918.91;8284492;28;20415;-63
2021/05/11 06:07:39;;;;;;;2.97;2.67;;;;;;;18.71;54.51;96913.19;8252454;28;20408;-63
2021/05/11 06:11:45;;;;;;;3.57;2.67;;;;;;;19.04;53.99;96920.66;8251985;28;20495;-64
2021/05/11 06:20:13;;;;;;;3.67;2.40;;;;;;;18.76;54.02;96924.06;8272297;28;20215;-64
2021/05/11 06:24:16;;;;;;;1.77;1.60;;;;;;;19.18;52.91;96943.78;8283302;28;20210;-64
2021/05/11 06:28:18;;;;;;;2.03;1.50;;;;;;;18.97;53.11;96933.53;8283455;28;20356;-63
2021/05/11 06:32:21;;;;;;;1.67;1.50;;;;;;;19.06;52.73;96924.81;8282491;28;20202;-64
2021/05/11 06:36:24;;;;;;;1.63;1.53;;;;;;;19.10;52.89;96931.41;8282946;28;20225;-64
2021/05/11 06:40:32;;;;;;;2.73;1.70;;;;;;;19.20;52.29;96933.97;8306252;28;20196;-64
2021/05/11 06:44:42;;;;;;;8.43;1.90;;;;;;;19.65;51.17;96945.44;8290327;28;20224;-69
2021/05/11 06:48:51;;;;;;;6.43;2.07;;;;;;;19.68;50.78;96932.81;8282455;28;20448;-70
2021/05/11 06:53:01;;;;;;;4.33;1.77;;;;;;;19.74;50.57;96947.16;8282681;28;20186;-69
2021/05/11 06:57:04;;;;;;;4.40;1.77;;;;;;;19.63;50.51;96944.72;8281764;28;20225;-68
2021/05/11 07:01:07;;;;;;;5.33;1.60;;;;;;;19.76;50.67;96937.34;8279302;28;20225;-70
2021/05/11 07:05:10;;;;;;;2.40;1.40;;;;;;;19.87;50.22;96955.50;8280877;28;20228;-69
2021/05/11 07:09:16;;;;;;;8.63;1.67;;;;;;;19.84;50.04;96940.06;8281861;28;20198;-68
2021/05/11 07:13:19;;;;;;;2.53;1.57;;;;;;;19.78;50.29;96942.44;8281211;28;20198;-69
2021/05/11 07:17:22;;;;;;;7.60;1.77;;;;;;;19.73;50.44;96930.59;8281042;28;20236;-70
2021/05/11 07:21:25;;;;;;;4.60;1.83;;;;;;;19.72;50.11;96909.72;8282596;28;20225;-69
2021/05/11 07:25:33;;;;;;;10.80;1.73;;;;;;;19.94;50.16;96899.75;8282054;28;20378;-68
2021/05/11 07:29:44;;;;;;;3.37;1.50;;;;;;;20.04;49.98;96889.94;8281462;28;20213;-68
2021/05/11 07:33:48;;;;;;;3.87;1.67;;;;;;;19.88;50.13;96893.28;8281768;28;20396;-68
2021/05/11 07:37:50;;;;;;;5.77;1.60;;;;;;;20.13;49.73;96882.97;8281648;28;20283;-68
2021/05/11 07:41:53;;;;;;;4.83;1.80;;;;;;;20.10;50.06;96878.81;8293843;28;20198;-68
2021/05/11 07:50:49;;;;;;;3.87;1.10;;;;;;;20.16;50.05;96874.75;8271187;28;20202;-69
2021/05/11 08:16:31;;;;;;;18.73;2.40;;;;;;;20.29;49.54;96865.44;8282089;28;20369;-69
2021/05/11 08:29:11;;;;;;;5.17;2.10;;;;;;;20.43;49.43;96868.50;8287117;28;20201;-70
2021/05/11 08:33:15;;;;;;;5.73;2.07;;;;;;;20.33;49.81;96867.78;8286399;28;20201;-68
2021/05/11 08:37:17;;;;;;;6.30;1.70;;;;;;;20.57;49.21;96874.97;8286858;28;20255;-68
2021/05/11 08:41:20;;;;;;;9.03;2.10;;;;;;;20.59;49.35;96873.03;8315528;28;20484;-69
2021/05/11 08:45:23;;;;;;;9.20;2.30;;;;;;;20.57;49.37;96861.84;8318803;28;20210;-69
2021/05/11 08:49:26;;;;;;;11.60;2.50;;;;;;;20.40;49.95;96851.22;8318843;28;20499;-69
2021/05/11 08:53:49;;;;;;;9.13;2.20;;;;;;;20.55;49.57;96850.66;8318550;28;20399;-69
2021/05/11 09:06:42;;;;;;;5.40;2.60;;;;;;;20.60;49.64;96898.34;8318550;28;20240;-70
2021/05/11 09:24:07;;;;;;;4.90;2.53;;;;;;;21.11;49.21;96887.88;8297944;28;20202;-70
2021/05/11 09:28:28;;;;;;;11.80;3.17;;;;;;;21.15;49.37;96892.66;8284222;28;20304;-68
2021/05/11 09:32:41;;;;;;;17.67;3.10;;;;;;;21.10;49.23;96892.31;8285273;28;20225;-69
2021/05/11 09:50:54;;;;;;;7.80;2.60;;;;;;;21.46;48.11;96918.44;8284723;28;20332;-66
2021/05/11 09:54:43;;;;;;;6.57;2.10;;;;;;;21.60;47.68;96901.97;8284700;28;20253;-65
2021/05/11 09:59:28;;;;;;;10.33;2.40;;;;;;;21.44;48.16;96886.16;8284251;28;20321;-66
2021/05/11 10:44:06;;;;;;;10.53;3.60;;;;;;;21.17;49.58;96832.78;8280707;28;20273;-66
2021/05/11 10:48:18;;;;;;;10.80;3.87;;;;;;;21.17;49.43;96834.56;8282699;28;20208;-67
2021/05/11 10:52:36;;;;;;;10.00;3.70;;;;;;;21.13;50.10;96847.22;8282553;28;20231;-67
2021/05/11 10:56:44;;;;;;;9.13;4.30;;;;;;;21.12;50.20;96879.81;8282035;28;20279;-66
2021/05/11 11:00:57;;;;;;;8.43;4.00;;;;;;;21.28;49.84;96873.75;8281944;28;20328;-67
2021/05/11 11:05:02;;;;;;;4.63;4.23;;;;;;;21.23;50.29;96891.88;8281833;28;20222;-67
2021/05/11 11:09:10;;;;;;;6.57;4.53;;;;;;;21.48;49.97;96890.94;8283410;28;20205;-67
2021/05/11 11:13:13;;;;;;;7.00;4.20;;;;;;;21.58;49.23;96897.88;8283468;28;20231;-66
2021/05/11 11:17:16;;;;;;;7.63;3.40;;;;;;;21.56;49.33;96894.56;8283763;28;20262;-67
2021/05/11 11:21:35;;;;;;;6.00;3.90;;;;;;;21.59;49.29;96902.13;8284152;28;20205;-66
2021/05/11 11:25:39;;;;;;;8.03;3.80;;;;;;;21.60;49.16;96901.97;8314137;28;20204;-67
2021/05/11 11:29:43;;;;;;;5.07;3.60;;;;;;;21.54;49.49;96899.19;8315681;28;20308;-69
2021/05/11 11:33:45;;;;;;;4.20;3.47;;;;;;;21.64;49.10;96900.66;8314696;28;20211;-68
2021/05/11 11:37:50;;;;;;;6.43;3.20;;;;;;;21.53;49.63;96902.78;8314189;28;20241;-74
2021/05/11 11:41:55;;;;;;;13.90;3.50;;;;;;;21.43;49.75;96887.09;8308932;28;20211;-71
2021/05/11 11:45:58;;;;;;;5.87;3.37;;;;;;;21.33;50.16;96865.38;8281445;28;20213;-68
2021/05/11 11:50:03;;;;;;;7.93;4.23;;;;;;;21.16;50.62;96875.88;8281076;28;20210;-68
2021/05/11 11:54:11;;;;;;;10.63;4.27;;;;;;;21.18;51.13;96863.38;8281450;28;20205;-70
2021/05/11 11:58:22;;;;;;;9.00;3.03;;;;;;;21.22;50.70;96891.00;8281211;28;20288;-70
2021/05/11 12:02:25;;;;;;;7.27;3.70;;;;;;;21.22;50.67;96884.94;8280575;28;20211;-69
2021/05/11 12:06:30;;;;;;;7.23;3.37;;;;;;;21.27;50.55;96880.84;8280903;28;20252;-68
2021/05/11 12:10:36;;;;;;;14.30;3.93;;;;;;;21.16;50.56;96891.66;8281624;28;20208;-69
2021/05/11 12:14:39;;;;;;;8.53;3.50;;;;;;;20.99;51.30;96877.63;8281092;28;20201;-67
2021/05/11 12:19:05;;;;;;;7.50;3.37;;;;;;;20.98;50.93;96883.91;8281340;28;20336;-66
2021/05/11 12:23:12;;;;;;;5.20;2.87;;;;;;;20.98;51.00;96878.63;8291950;28;20200;-67
2021/05/11 12:27:16;;;;;;;3.53;2.10;;;;;;;21.22;50.69;96869.13;8313118;28;20262;-67
2021/05/11 12:31:35;;;;;;;7.23;2.87;;;;;;;21.16;50.69;96881.13;8313458;28;20252;-67
2021/05/11 12:35:38;;;;;;;4.23;2.93;;;;;;;21.08;51.34;96884.56;8313658;28;20185;-67
2021/05/11 12:39:45;;;;;;;3.80;2.73;;;;;;;20.97;51.49;96876.16;8313653;28;20218;-68
2021/05/11 12:43:50;;;;;;;7.40;2.80;;;;;;;20.72;52.78;96862.91;8313440;28;20204;-68
2021/05/11 12:48:00;;;;;;;5.50;2.93;;;;;;;20.79;52.61;96860.47;8313506;28;20207;-68
2021/05/11 12:52:05;;;;;;;4.80;3.37;;;;;;;20.85;52.28;96862.47;8313416;28;20201;-67
2021/05/11 12:56:18;;;;;;;4.47;3.13;;;;;;;20.82;52.77;96865.41;8313244;28;20226;-68
2021/05/11 13:00:34;;;;;;;5.17;3.10;;;;;;;20.76;52.69;96851.09;8313500;28;20224;-68
2021/05/11 13:13:50;;;;;;;3.87;2.70;;;;;;;20.84;53.28;96848.47;8319060;28;20316;-67
2021/05/11 13:22:34;;;;;;;7.37;2.70;;;;;;;20.73;53.16;96859.28;8286590;28;20206;-67
2021/05/11 13:26:40;;;;;;;15.80;2.57;;;;;;;20.77;53.55;96865.06;8286061;28;20205;-68
2021/05/11 13:30:49;;;;;;;5.30;2.57;;;;;;;20.59;54.17;96860.69;8286313;28;20240;-67
2021/05/11 13:35:11;;;;;;;3.00;2.17;;;;;;;20.75;53.56;96875.72;8285844;28;20203;-68
2021/05/11 13:39:15;;;;;;;5.90;2.60;;;;;;;20.75;54.01;96901.22;8285323;28;20424;-68
2021/05/11 13:43:18;;;;;;;7.13;2.10;;;;;;;20.83;53.67;96911.81;8286160;28;20555;-71
2021/05/11 13:47:20;;;;;;;5.97;2.53;;;;;;;20.95;53.96;96897.38;8285827;28;20211;-65
2021/05/11 13:51:23;;;;;;;8.80;2.80;;;;;;;20.98;54.46;96898.84;8285027;28;20325;-65
2021/05/11 13:55:35;;;;;;;8.30;2.47;;;;;;;20.94;54.14;96905.41;8285041;28;20201;-65
2021/05/11 14:03:58;;;;;;;3.77;2.30;;;;;;;20.90;54.40;96918.06;8285585;28;20383;-65
2021/05/11 14:08:01;;;;;;;8.53;2.77;;;;;;;20.92;54.12;96910.81;8285515;28;20234;-67
2021/05/11 14:12:05;;;;;;;3.67;2.60;;;;;;;20.98;54.36;96915.47;8284392;28;20232;-67
2021/05/11 14:16:07;;;;;;;4.60;2.40;;;;;;;21.01;53.92;96917.78;8283629;28;20206;-68
2021/05/11 14:20:11;;;;;;;4.53;2.40;;;;;;;20.99;54.04;96913.66;8283971;28;20213;-68
2021/05/11 14:24:14;;;;;;;13.77;3.20;;;;;;;20.86;53.90;96909.66;8283734;28;20218;-68
2021/05/11 14:28:17;;;;;;;7.87;2.57;;;;;;;20.88;53.75;96904.25;8284512;28;20207;-69
2021/05/11 14:32:20;;;;;;;4.07;2.77;;;;;;;20.72;53.97;96897.09;8283366;28;20207;-69
2021/05/11 14:36:23;;;;;;;7.60;3.17;;;;;;;20.69;54.02;96894.78;8282801;28;20229;-69
2021/05/11 14:40:26;;;;;;;3.07;2.70;;;;;;;20.56;54.41;96902.25;8281051;28;20230;-69
2021/05/11 14:44:29;;;;;;;10.90;3.00;;;;;;;20.59;55.10;96912.47;8284066;28;20202;-66
2021/05/11 14:48:33;;;;;;;4.90;3.00;;;;;;;20.57;54.88;96906.53;8283318;28;20212;-65
2021/05/11 14:52:35;;;;;;;4.87;2.90;;;;;;;20.54;54.84;96899.78;8283699;28;20391;-68
2021/05/11 14:56:39;;;;;;;6.77;3.87;;;;;;;20.42;55.88;96906.28;8282920;28;20409;-68
2021/05/11 15:00:43;;;;;;;7.83;3.70;;;;;;;20.23;56.89;96909.94;8283283;28;20205;-67
2021/05/11 15:04:45;;;;;;;5.93;3.50;;;;;;;20.20;56.92;96907.63;8283279;28;20249;-66
2021/05/11 15:08:47;;;;;;;5.30;3.60;;;;;;;20.19;56.76;96909.44;8282525;28;20305;-66
2021/05/11 15:12:50;;;;;;;6.97;3.33;;;;;;;20.33;56.24;96905.41;8282639;28;20206;-66
2021/05/11 15:16:59;;;;;;;8.60;3.00;;;;;;;20.21;56.85;96891.69;8283315;28;20229;-66
2021/05/11 15:21:01;;;;;;;5.57;2.90;;;;;;;20.03;57.54;96897.00;8282858;28;20475;-66
2021/05/11 15:25:05;;;;;;;4.83;2.60;;;;;;;20.15;57.02;96902.84;8283267;28;20265;-67
2021/05/11 15:29:07;;;;;;;5.17;2.80;;;;;;;20.27;56.80;96913.91;8284234;28;20500;-66
2021/05/11 15:33:11;;;;;;;14.30;3.80;;;;;;;20.15;57.53;96907.28;8283482;28;20261;-65
2021/05/11 15:37:16;;;;;;;7.10;3.33;;;;;;;19.98;58.88;96916.84;8282880;28;20233;-66
2021/05/11 15:41:19;;;;;;;5.37;3.80;;;;;;;19.81;59.24;96916.69;8283020;28;20206;-66
2021/05/11 15:45:22;;;;;;;7.13;3.20;;;;;;;19.77;59.70;96922.41;8282442;28;20198;-67
2021/05/11 15:49:26;;;;;;;3.97;3.00;;;;;;;19.87;59.00;96918.72;8283315;28;20206;-66
2021/05/11 15:53:28;;;;;;;6.77;3.33;;;;;;;19.76;59.62;96921.56;8282803;28;20320;-67
2021/05/11 15:57:31;;;;;;;11.37;2.57;;;;;;;19.80;59.18;96924.72;8282474;28;20236;-66
2021/05/11 16:01:33;;;;;;;4.67;3.17;;;;;;;19.69;60.07;96926.59;8282872;28;20252;-62
2021/05/11 16:05:37;;;;;;;4.97;2.97;;;;;;;19.76;59.59;96929.44;8281521;28;20264;-66
2021/05/11 16:09:40;;;;;;;9.07;2.77;;;;;;;19.83;58.94;96927.06;8281707;28;20233;-66
2021/05/11 16:13:42;;;;;;;6.83;2.90;;;;;;;19.52;60.37;96927.41;8281269;28;20404;-65
2021/05/11 16:17:45;;;;;;;5.97;3.20;;;;;;;19.76;59.45;96928.63;8281407;28;20235;-65
2021/05/11 16:21:48;;;;;;;4.00;3.00;;;;;;;19.53;60.76;96932.53;8282059;28;20388;-65
2021/05/11 16:25:51;;;;;;;3.40;2.97;;;;;;;19.49;60.74;96944.28;8313696;28;20468;-66
2021/05/11 16:29:53;;;;;;;4.47;3.63;;;;;;;19.32;61.74;96958.22;8290385;28;20251;-63
2021/05/11 16:33:57;;;;;;;4.90;3.90;;;;;;;19.29;62.23;96956.72;8282990;28;20358;-63
2021/05/11 16:38:00;;;;;;;3.87;3.57;;;;;;;18.99;62.90;96964.88;8282376;28;20245;-63
2021/05/11 16:42:03;;;;;;;3.90;3.47;;;;;;;18.88;63.21;96966.72;8286804;28;20201;-63
2021/05/11 16:46:06;;;;;;;4.20;3.80;;;;;;;18.81;63.69;96965.66;8288404;28;20289;-63
2021/05/11 16:50:09;;;;;;;3.43;3.07;;;;;;;18.59;64.23;96971.22;8287049;28;20213;-63
2021/05/11 16:54:13;;;;;;;4.73;3.67;;;;;;;18.63;64.78;96976.03;8286540;28;20269;-62
2021/05/11 16:58:16;;;;;;;4.33;3.67;;;;;;;18.65;64.59;96984.56;8283988;28;20222;-62
2021/05/11 17:02:18;;;;;;;6.20;4.20;;;;;;;18.49;64.95;96986.97;8286034;28;20209;-63
2021/05/11 17:06:21;;;;;;;5.87;4.00;;;;;;;18.25;65.68;96988.22;8286332;28;20234;-62
2021/05/11 17:10:27;;;;;;;4.60;4.07;;;;;;;18.32;65.66;96985.91;8285731;28;20348;-62
2021/05/11 17:14:30;;;;;;;4.07;3.70;;;;;;;18.24;65.59;96991.00;8286751;28;20212;-64
2021/05/11 17:18:32;;;;;;;3.70;3.40;;;;;;;18.48;64.95;96991.38;8285568;28;20640;-62
2021/05/11 17:22:34;;;;;;;3.90;3.20;;;;;;;18.17;65.73;96985.50;8286624;28;20534;-63
2021/05/11 17:26:38;;;;;;;5.47;3.07;;;;;;;18.08;65.76;96997.63;8285810;28;20476;-63
2021/05/11 17:30:41;;;;;;;4.30;3.00;;;;;;;17.87;66.59;96991.69;8285666;28;20275;-63
2021/05/11 17:34:44;;;;;;;3.00;2.70;;;;;;;17.62;66.67;96999.09;8285533;28;20224;-63
2021/05/11 17:38:47;;;;;;;5.20;2.93;;;;;;;17.57;66.33;96986.41;8285249;28;20328;-62
2021/05/11 17:42:51;;;;;;;4.30;2.60;;;;;;;17.33;67.42;96986.78;8284914;28;20216;-63
2021/05/11 17:46:53;;;;;;;2.87;2.50;;;;;;;17.33;67.25;96980.72;8285544;28;20209;-63
2021/05/11 17:50:58;;;;;;;3.37;2.53;;;;;;;17.24;67.07;96982.34;8284495;28;20198;-63
2021/05/11 17:55:00;;;;;;;2.43;2.17;;;;;;;17.14;66.85;96984.13;8285159;28;20202;-63
2021/05/11 17:59:04;;;;;;;4.00;2.23;;;;;;;17.20;67.07;96994.84;8284789;28;20244;-63
2021/05/11 18:03:06;;;;;;;2.90;2.27;;;;;;;17.26;66.36;97003.16;8284875;28;20411;-63
2021/05/11 18:07:09;;;;;;;6.17;2.00;;;;;;;17.22;66.65;97020.91;8284710;28;20375;-62
2021/05/11 18:11:12;;;;;;;2.53;2.03;;;;;;;17.29;66.34;97047.38;8284669;28;20220;-62
2021/05/11 18:15:15;;;;;;;2.37;2.10;;;;;;;17.16;67.01;97058.88;8284264;28;20345;-63
2021/05/11 18:19:18;;;;;;;3.07;2.20;;;;;;;17.36;66.29;97075.50;8283851;28;20237;-63
2021/05/11 18:23:20;;;;;;;2.50;2.27;;;;;;;17.42;65.57;97094.22;8283615;28;20488;-63
2021/05/11 18:27:23;;;;;;;2.67;2.47;;;;;;;17.45;65.98;97101.81;8283583;28;20210;-63
2021/05/11 18:31:26;;;;;;;4.73;2.57;;;;;;;17.43;65.99;97119.44;8283605;28;20202;-63
2021/05/11 18:35:30;;;;;;;3.27;2.60;;;;;;;17.54;65.81;97129.84;8283207;28;20205;-63
2021/05/11 18:39:34;;;;;;;2.87;2.57;;;;;;;17.51;65.52;97124.84;8283075;28;20251;-64
2021/05/11 18:43:36;;;;;;;3.53;2.50;;;;;;;17.37;65.94;97105.91;8283300;28;20246;-63
2021/05/11 18:47:40;;;;;;;2.67;2.30;;;;;;;17.17;66.38;97096.31;8283362;28;20206;-63
2021/05/11 18:51:43;;;;;;;4.40;2.83;;;;;;;17.26;66.45;97105.19;8282875;28;20452;-64
2021/05/11 18:55:46;;;;;;;3.50;3.20;;;;;;;17.34;65.80;97121.06;8282832;28;20202;-63
2021/05/11 18:59:48;;;;;;;4.00;3.60;;;;;;;17.32;65.82;97122.97;8282413;28;20235;-63
2021/05/11 19:03:51;;;;;;;3.87;3.57;;;;;;;17.08;66.27;97120.66;8282943;28;20457;-64
2021/05/11 19:07:54;;;;;;;3.50;3.20;;;;;;;17.07;65.06;97126.84;8282752;28;20245;-63
2021/05/11 19:11:56;;;;;;;2.77;2.57;;;;;;;16.99;64.93;97130.94;8282445;28;20208;-63
2021/05/11 19:16:05;;;;;;;4.17;2.10;;;;;;;16.85;64.54;97138.25;8282703;28;20208;-64
2021/05/11 19:20:09;;;;;;;3.30;1.70;;;;;;;16.89;64.44;97158.81;8282665;28;20555;-64
2021/05/11 19:24:12;;;;;;;3.23;1.27;;;;;;;16.79;64.03;97169.19;8282286;28;20276;-64
2021/05/11 19:28:15;;;;;;;3.27;1.00;;;;;;;16.75;63.93;97177.38;8282171;28;20205;-63
2021/05/11 19:32:17;;;;;;;0.77;0.77;;;;;;;16.46;64.63;97184.97;8281932;28;20201;-64
2021/05/11 19:36:23;;;;;;;0.93;0.80;;;;;;;16.54;64.49;97187.78;8281535;28;20221;-64
2021/05/11 19:40:29;;;;;;;1.10;0.80;;;;;;;16.72;63.44;97198.56;8280711;28;20292;-63
2021/05/11 19:44:32;;;;;;;1.80;0.90;;;;;;;16.69;63.50;97202.22;8280903;28;20300;-63
2021/05/11 19:48:34;;;;;;;1.10;1.00;;;;;;;16.66;63.39;97199.03;8281240;28;20366;-63
2021/05/11 19:52:41;;;;;;;2.83;1.27;;;;;;;16.65;63.22;97197.41;8280764;28;20209;-63
2021/05/11 19:56:48;;;;;;;1.43;1.10;;;;;;;16.51;64.16;97188.06;8281569;28;20272;-64
2021/05/11 20:00:51;;;;;;;1.70;1.10;;;;;;;16.44;64.22;97192.94;8281564;28;20562;-63
2021/05/11 20:04:53;;;;;;;1.77;1.10;;;;;;;16.31;64.42;97187.88;8280635;28;20489;-64
2021/05/11 20:08:57;;;;;;;3.27;1.00;;;;;;;16.51;64.00;97183.66;8280407;28;20206;-64
2021/05/11 20:13:05;;;;;;;1.83;1.10;;;;;;;16.34;64.72;97197.25;8280536;28;20201;-63
2021/05/11 20:17:07;;;;;;;1.50;1.20;;;;;;;16.40;63.88;97209.81;8280518;28;20528;-63
2021/05/11 20:21:10;;;;;;;1.30;0.93;;;;;;;16.27;64.64;97207.34;8280148;28;20237;-63
2021/05/11 20:25:14;;;;;;;1.07;0.80;;;;;;;16.28;63.92;97216.88;8280160;28;20202;-63
2021/05/11 20:29:16;;;;;;;0.90;0.80;;;;;;;16.28;64.17;97224.69;8280679;28;20388;-63
2021/05/11 20:33:23;;;;;;;0.87;0.87;;;;;;;16.40;63.81;97228.13;8281299;28;20219;-63
2021/05/11 20:37:25;;;;;;;1.57;0.90;;;;;;;16.35;63.54;97233.69;8279945;28;20210;-63
2021/05/11 20:41:28;;;;;;;0.80;0.80;;;;;;;16.29;64.02;97228.97;8280750;28;20212;-63
2021/05/11 20:45:31;;;;;;;1.53;1.10;;;;;;;16.20;64.45;97233.16;8279961;28;20224;-63
2021/05/11 20:49:33;;;;;;;1.03;1.00;;;;;;;16.23;64.74;97230.28;8280260;28;20408;-64
2021/05/11 20:53:36;;;;;;;2.13;1.13;;;;;;;16.34;64.46;97239.06;8280048;28;20209;-64
2021/05/11 20:57:39;;;;;;;2.20;1.60;;;;;;;16.12;65.09;97229.47;8280568;28;20209;-64
2021/05/11 21:01:41;;;;;;;1.80;1.70;;;;;;;16.12;65.28;97234.69;8280459;28;20508;-63
2021/05/11 21:05:44;;;;;;;2.10;1.90;;;;;;;16.17;64.85;97233.38;8279668;28;20518;-64
2021/05/11 21:09:46;;;;;;;2.47;2.27;;;;;;;16.10;65.30;97237.41;8280780;28;20379;-64
2021/05/11 21:13:50;;;;;;;3.13;2.53;;;;;;;15.93;65.76;97235.28;8280467;28;20401;-64
2021/05/11 21:17:52;;;;;;;3.03;2.77;;;;;;;16.08;65.05;97233.28;8279861;28;20232;-64
2021/05/11 21:21:55;;;;;;;3.13;2.83;;;;;;;15.95;65.85;97236.00;8280242;28;20202;-64
2021/05/11 21:25:57;;;;;;;3.00;2.70;;;;;;;16.02;65.31;97248.47;8284051;28;20201;-64
2021/05/11 21:30:00;;;;;;;3.10;2.80;;;;;;;16.18;64.98;97250.72;8285601;28;20233;-63
2021/05/11 21:34:03;;;;;;;3.30;3.00;;;;;;;16.15;64.90;97255.34;8285796;28;20201;-64
2021/05/11 21:38:06;;;;;;;3.20;3.00;;;;;;;16.02;65.16;97256.28;8285242;28;20320;-64
2021/05/11 21:42:08;;;;;;;4.07;3.07;;;;;;;16.02;65.32;97248.47;8284992;28;20208;-63
2021/05/11 21:46:12;;;;;;;3.70;3.40;;;;;;;16.03;65.21;97249.31;8284675;28;20216;-63
2021/05/11 21:50:16;;;;;;;4.13;3.77;;;;;;;16.00;65.71;97249.53;8285015;28;20258;-63
2021/05/11 21:54:18;;;;;;;4.07;3.77;;;;;;;15.90;65.90;97238.97;8284646;28;20485;-62
2021/05/11 21:58:21;;;;;;;3.93;3.60;;;;;;;16.05;65.02;97236.13;8284359;28;20233;-63
2021/05/11 22:02:24;;;;;;;5.57;4.17;;;;;;;15.88;65.77;97237.41;8284170;28;20221;-63